KAXV/AXV METAR and TAF weather

Enter ICAO airport designator
Station Type Date Time Source
KAXV METAR 2024/04/17 18:55 UTC NOAA

KAXV 171855Z AUTO 23015G19KT 2SM +TSRA SCT012 BKN024 OVC036 17/16 A2970 RMK AO2 LTG DSNT ALQDS P0028


Station Type Date Time Source
KAXV Decoded METAR 2024/04/17 18:55 UTC NOAA

Station name not available
Apr 17, 2024 - 02:55 PM EDT / 2024.04.17 1855 UTC
Wind: from the SW (230 degrees) at 17 MPH (15 KT) gusting to 22 MPH (19 KT):0
Visibility: 2 mile(s):0
Sky conditions: overcast
Weather: heavy rain with thunder; Lightning observed
Precipitation last hour: 0.28 inches
Temperature: 62 F (17 C)
Dew Point: 60 F (16 C)
Relative Humidity: 93%
Pressure (altimeter): 29.7 in. Hg (1005 hPa)
ob: KAXV 171855Z AUTO 23015G19KT 2SM +TSRA SCT012 BKN024 OVC036 17/16 A2970 RMK AO2 LTG DSNT ALQDS P0028
cycle: 19

Station Type Date Time Source
KAXV TAF UTC NOAA

Error!

Example: see airport list